sensor_id;sensor_type;location;lat;lon;timestamp;temperature;humidity
17827;DHT22;9038;48.208;16.308;2023-01-19T00:00:08;4.90;61.60
17827;DHT22;9038;48.208;16.308;2023-01-19T00:02:12;4.90;61.60
17827;DHT22;9038;48.208;16.308;2023-01-19T00:04:14;4.90;61.70
17827;DHT22;9038;48.208;16.308;2023-01-19T00:06:17;5.00;61.80
17827;DHT22;9038;48.208;16.308;2023-01-19T00:08:19;4.90;61.70
17827;DHT22;9038;48.208;16.308;2023-01-19T00:10:21;4.90;61.90
17827;DHT22;9038;48.208;16.308;2023-01-19T00:12:22;4.90;62.10
17827;DHT22;9038;48.208;16.308;2023-01-19T00:14:24;4.80;61.80
17827;DHT22;9038;48.208;16.308;2023-01-19T00:16:26;4.80;61.90
17827;DHT22;9038;48.208;16.308;2023-01-19T00:18:30;4.80;62.30
17827;DHT22;9038;48.208;16.308;2023-01-19T00:20:32;4.80;62.50
17827;DHT22;9038;48.208;16.308;2023-01-19T00:22:35;4.80;62.70
17827;DHT22;9038;48.208;16.308;2023-01-19T00:24:37;4.80;62.50
17827;DHT22;9038;48.208;16.308;2023-01-19T00:26:38;4.80;62.50
17827;DHT22;9038;48.208;16.308;2023-01-19T00:28:42;4.80;62.80
17827;DHT22;9038;48.208;16.308;2023-01-19T00:30:44;4.70;62.80
17827;DHT22;9038;48.208;16.308;2023-01-19T00:32:46;4.70;63.10
17827;DHT22;9038;48.208;16.308;2023-01-19T00:34:50;4.70;63.60
17827;DHT22;9038;48.208;16.308;2023-01-19T00:36:52;4.70;63.90
17827;DHT22;9038;48.208;16.308;2023-01-19T00:38:54;4.60;64.10
17827;DHT22;9038;48.208;16.308;2023-01-19T00:40:56;4.60;64.30
17827;DHT22;9038;48.208;16.308;2023-01-19T00:42:58;4.60;64.50
17827;DHT22;9038;48.208;16.308;2023-01-19T00:44:59;4.60;64.60
17827;DHT22;9038;48.208;16.308;2023-01-19T00:47:01;4.60;64.60
17827;DHT22;9038;48.208;16.308;2023-01-19T00:49:05;4.60;65.90
17827;DHT22;9038;48.208;16.308;2023-01-19T00:51:08;4.50;65.40
17827;DHT22;9038;48.208;16.308;2023-01-19T00:53:10;4.50;65.50
17827;DHT22;9038;48.208;16.308;2023-01-19T00:55:13;4.40;65.70
17827;DHT22;9038;48.208;16.308;2023-01-19T00:57:16;4.40;66.00
17827;DHT22;9038;48.208;16.308;2023-01-19T00:59:18;4.40;66.20
17827;DHT22;9038;48.208;16.308;2023-01-19T01:01:20;4.40;66.00
17827;DHT22;9038;48.208;16.308;2023-01-19T01:03:22;4.30;66.30
17827;DHT22;9038;48.208;16.308;2023-01-19T01:05:27;4.30;66.30
17827;DHT22;9038;48.208;16.308;2023-01-19T01:07:31;4.30;66.40
17827;DHT22;9038;48.208;16.308;2023-01-19T01:09:40;4.30;66.70
17827;DHT22;9038;48.208;16.308;2023-01-19T01:11:42;4.30;66.60
17827;DHT22;9038;48.208;16.308;2023-01-19T01:13:44;4.30;66.30
17827;DHT22;9038;48.208;16.308;2023-01-19T01:15:48;4.20;66.50
17827;DHT22;9038;48.208;16.308;2023-01-19T01:17:50;4.20;66.30
17827;DHT22;9038;48.208;16.308;2023-01-19T01:19:52;4.20;66.20
17827;DHT22;9038;48.208;16.308;2023-01-19T01:21:54;4.30;66.00
17827;DHT22;9038;48.208;16.308;2023-01-19T01:23:57;4.30;65.90
17827;DHT22;9038;48.208;16.308;2023-01-19T01:25:59;4.30;65.60
17827;DHT22;9038;48.208;16.308;2023-01-19T01:28:01;4.30;65.30
17827;DHT22;9038;48.208;16.308;2023-01-19T01:30:05;4.40;65.40
17827;DHT22;9038;48.208;16.308;2023-01-19T01:32:08;4.40;65.10
17827;DHT22;9038;48.208;16.308;2023-01-19T01:34:10;4.50;65.10
17827;DHT22;9038;48.208;16.308;2023-01-19T01:36:11;4.50;64.50
17827;DHT22;9038;48.208;16.308;2023-01-19T01:38:14;4.60;64.60
17827;DHT22;9038;48.208;16.308;2023-01-19T01:40:18;4.60;64.10
17827;DHT22;9038;48.208;16.308;2023-01-19T01:42:25;4.50;63.70
17827;DHT22;9038;48.208;16.308;2023-01-19T01:44:44;4.60;64.10
17827;DHT22;9038;48.208;16.308;2023-01-19T01:46:50;4.60;63.30
17827;DHT22;9038;48.208;16.308;2023-01-19T01:48:59;4.60;63.30
17827;DHT22;9038;48.208;16.308;2023-01-19T01:51:06;4.70;63.20
17827;DHT22;9038;48.208;16.308;2023-01-19T01:53:24;4.60;62.90
17827;DHT22;9038;48.208;16.308;2023-01-19T01:55:30;4.60;62.70
17827;DHT22;9038;48.208;16.308;2023-01-19T01:57:36;4.60;62.60
17827;DHT22;9038;48.208;16.308;2023-01-19T01:59:42;4.60;62.60
17827;DHT22;9038;48.208;16.308;2023-01-19T02:01:45;4.60;62.50
17827;DHT22;9038;48.208;16.308;2023-01-19T02:04:05;4.60;63.40
17827;DHT22;9038;48.208;16.308;2023-01-19T02:06:07;4.60;62.50
17827;DHT22;9038;48.208;16.308;2023-01-19T02:08:14;4.60;62.60
17827;DHT22;9038;48.208;16.308;2023-01-19T02:10:35;4.70;63.20
17827;DHT22;9038;48.208;16.308;2023-01-19T02:12:55;4.60;61.90
17827;DHT22;9038;48.208;16.308;2023-01-19T02:15:17;4.70;62.30
17827;DHT22;9038;48.208;16.308;2023-01-19T02:17:20;4.70;62.20
17827;DHT22;9038;48.208;16.308;2023-01-19T02:19:25;4.70;62.40
17827;DHT22;9038;48.208;16.308;2023-01-19T02:21:33;4.60;62.00
17827;DHT22;9038;48.208;16.308;2023-01-19T02:23:43;4.60;61.90
17827;DHT22;9038;48.208;16.308;2023-01-19T02:25:46;4.60;62.00
17827;DHT22;9038;48.208;16.308;2023-01-19T02:27:50;4.60;62.10
17827;DHT22;9038;48.208;16.308;2023-01-19T02:29:55;4.60;62.30
17827;DHT22;9038;48.208;16.308;2023-01-19T02:31:57;4.70;62.30
17827;DHT22;9038;48.208;16.308;2023-01-19T02:34:02;4.70;62.00
17827;DHT22;9038;48.208;16.308;2023-01-19T02:36:06;4.70;62.00
17827;DHT22;9038;48.208;16.308;2023-01-19T02:38:09;4.70;61.70
17827;DHT22;9038;48.208;16.308;2023-01-19T02:40:16;4.80;61.50
17827;DHT22;9038;48.208;16.308;2023-01-19T02:42:22;4.80;61.30
17827;DHT22;9038;48.208;16.308;2023-01-19T02:44:26;4.70;61.20
17827;DHT22;9038;48.208;16.308;2023-01-19T02:46:30;4.70;61.20
17827;DHT22;9038;48.208;16.308;2023-01-19T02:48:31;4.70;61.40
17827;DHT22;9038;48.208;16.308;2023-01-19T02:50:39;4.70;61.40
17827;DHT22;9038;48.208;16.308;2023-01-19T02:52:48;4.70;61.30
17827;DHT22;9038;48.208;16.308;2023-01-19T02:55:00;4.70;61.40
17827;DHT22;9038;48.208;16.308;2023-01-19T02:57:29;4.70;61.60
17827;DHT22;9038;48.208;16.308;2023-01-19T02:59:45;4.70;61.40
17827;DHT22;9038;48.208;16.308;2023-01-19T03:02:02;4.70;61.40
17827;DHT22;9038;48.208;16.308;2023-01-19T03:04:14;4.60;61.40
17827;DHT22;9038;48.208;16.308;2023-01-19T03:06:28;4.70;61.40
17827;DHT22;9038;48.208;16.308;2023-01-19T03:08:42;4.60;61.40
17827;DHT22;9038;48.208;16.308;2023-01-19T03:10:50;4.60;61.40
17827;DHT22;9038;48.208;16.308;2023-01-19T03:12:59;4.60;61.60
17827;DHT22;9038;48.208;16.308;2023-01-19T03:15:10;4.60;61.40
17827;DHT22;9038;48.208;16.308;2023-01-19T03:17:16;4.60;61.40
17827;DHT22;9038;48.208;16.308;2023-01-19T03:19:22;4.60;61.40
17827;DHT22;9038;48.208;16.308;2023-01-19T03:21:28;4.50;61.40
17827;DHT22;9038;48.208;16.308;2023-01-19T03:23:31;4.50;61.40
17827;DHT22;9038;48.208;16.308;2023-01-19T03:25:38;4.50;61.50
17827;DHT22;9038;48.208;16.308;2023-01-19T03:27:43;4.50;61.60
17827;DHT22;9038;48.208;16.308;2023-01-19T03:29:51;4.50;61.70
17827;DHT22;9038;48.208;16.308;2023-01-19T03:31:55;4.50;61.30
17827;DHT22;9038;48.208;16.308;2023-01-19T03:34:01;4.50;61.60
17827;DHT22;9038;48.208;16.308;2023-01-19T03:36:08;4.50;61.30
17827;DHT22;9038;48.208;16.308;2023-01-19T03:38:15;4.50;61.30
17827;DHT22;9038;48.208;16.308;2023-01-19T03:40:18;4.50;61.30
17827;DHT22;9038;48.208;16.308;2023-01-19T03:42:19;4.40;61.20
17827;DHT22;9038;48.208;16.308;2023-01-19T03:44:23;4.50;61.40
17827;DHT22;9038;48.208;16.308;2023-01-19T03:46:28;4.50;61.40
17827;DHT22;9038;48.208;16.308;2023-01-19T03:48:31;4.50;61.00
17827;DHT22;9038;48.208;16.308;2023-01-19T03:50:34;4.50;60.70
17827;DHT22;9038;48.208;16.308;2023-01-19T03:52:36;4.60;60.80
17827;DHT22;9038;48.208;16.308;2023-01-19T03:54:38;4.60;60.80
17827;DHT22;9038;48.208;16.308;2023-01-19T03:56:40;4.70;60.70
17827;DHT22;9038;48.208;16.308;2023-01-19T03:58:43;4.70;60.90
17827;DHT22;9038;48.208;16.308;2023-01-19T04:00:45;4.70;60.70
17827;DHT22;9038;48.208;16.308;2023-01-19T04:02:48;4.70;60.60
17827;DHT22;9038;48.208;16.308;2023-01-19T04:04:50;4.70;60.60
17827;DHT22;9038;48.208;16.308;2023-01-19T04:06:52;4.70;60.80
17827;DHT22;9038;48.208;16.308;2023-01-19T04:08:54;4.70;60.70
17827;DHT22;9038;48.208;16.308;2023-01-19T04:10:56;4.70;60.90
17827;DHT22;9038;48.208;16.308;2023-01-19T04:12:59;4.70;60.80
17827;DHT22;9038;48.208;16.308;2023-01-19T04:15:01;4.70;60.90
17827;DHT22;9038;48.208;16.308;2023-01-19T04:17:03;4.70;61.00
17827;DHT22;9038;48.208;16.308;2023-01-19T04:19:07;4.70;60.90
17827;DHT22;9038;48.208;16.308;2023-01-19T04:21:09;4.70;61.00
17827;DHT22;9038;48.208;16.308;2023-01-19T04:23:11;4.70;60.90
17827;DHT22;9038;48.208;16.308;2023-01-19T04:25:13;4.80;60.70
17827;DHT22;9038;48.208;16.308;2023-01-19T04:27:15;4.70;60.70
17827;DHT22;9038;48.208;16.308;2023-01-19T04:29:17;4.80;60.90
17827;DHT22;9038;48.208;16.308;2023-01-19T04:31:19;4.70;60.60
17827;DHT22;9038;48.208;16.308;2023-01-19T04:33:23;4.70;60.20
17827;DHT22;9038;48.208;16.308;2023-01-19T04:35:26;4.70;60.20
17827;DHT22;9038;48.208;16.308;2023-01-19T04:37:28;4.70;60.10
17827;DHT22;9038;48.208;16.308;2023-01-19T04:39:30;4.70;60.30
17827;DHT22;9038;48.208;16.308;2023-01-19T04:41:32;4.80;60.30
17827;DHT22;9038;48.208;16.308;2023-01-19T04:43:34;4.70;60.30
17827;DHT22;9038;48.208;16.308;2023-01-19T04:45:36;4.80;60.60
17827;DHT22;9038;48.208;16.308;2023-01-19T04:47:38;4.80;60.70
17827;DHT22;9038;48.208;16.308;2023-01-19T04:49:42;4.80;60.70
17827;DHT22;9038;48.208;16.308;2023-01-19T04:51:45;4.80;60.70
17827;DHT22;9038;48.208;16.308;2023-01-19T04:53:47;4.80;60.80
17827;DHT22;9038;48.208;16.308;2023-01-19T04:55:52;4.80;60.90
17827;DHT22;9038;48.208;16.308;2023-01-19T04:57:54;4.80;61.10
17827;DHT22;9038;48.208;16.308;2023-01-19T04:59:56;4.80;61.20
17827;DHT22;9038;48.208;16.308;2023-01-19T05:01:58;4.70;61.40
17827;DHT22;9038;48.208;16.308;2023-01-19T05:04:00;4.70;61.70
17827;DHT22;9038;48.208;16.308;2023-01-19T05:06:05;4.70;61.70
17827;DHT22;9038;48.208;16.308;2023-01-19T05:08:08;4.70;61.80
17827;DHT22;9038;48.208;16.308;2023-01-19T05:10:11;4.80;61.80
17827;DHT22;9038;48.208;16.308;2023-01-19T05:12:12;4.80;62.00
17827;DHT22;9038;48.208;16.308;2023-01-19T05:14:14;4.70;62.00
17827;DHT22;9038;48.208;16.308;2023-01-19T05:16:16;4.80;62.20
17827;DHT22;9038;48.208;16.308;2023-01-19T05:18:18;4.80;62.30
17827;DHT22;9038;48.208;16.308;2023-01-19T05:20:20;4.70;62.00
17827;DHT22;9038;48.208;16.308;2023-01-19T05:22:22;4.70;62.40
17827;DHT22;9038;48.208;16.308;2023-01-19T05:24:25;4.70;62.60
17827;DHT22;9038;48.208;16.308;2023-01-19T05:26:27;4.70;62.70
17827;DHT22;9038;48.208;16.308;2023-01-19T05:28:31;4.70;62.70
17827;DHT22;9038;48.208;16.308;2023-01-19T05:30:33;4.70;62.70
17827;DHT22;9038;48.208;16.308;2023-01-19T05:32:35;4.70;62.70
17827;DHT22;9038;48.208;16.308;2023-01-19T05:34:37;4.70;62.90
17827;DHT22;9038;48.208;16.308;2023-01-19T05:36:39;4.70;62.90
17827;DHT22;9038;48.208;16.308;2023-01-19T05:38:41;4.80;63.20
17827;DHT22;9038;48.208;16.308;2023-01-19T05:40:45;4.80;62.90
17827;DHT22;9038;48.208;16.308;2023-01-19T05:42:47;4.80;63.00
17827;DHT22;9038;48.208;16.308;2023-01-19T05:44:49;4.80;63.30
17827;DHT22;9038;48.208;16.308;2023-01-19T05:46:51;4.90;63.00
17827;DHT22;9038;48.208;16.308;2023-01-19T05:48:53;4.80;62.80
17827;DHT22;9038;48.208;16.308;2023-01-19T05:50:58;4.90;62.90
17827;DHT22;9038;48.208;16.308;2023-01-19T05:53:01;4.90;63.10
17827;DHT22;9038;48.208;16.308;2023-01-19T05:55:03;4.90;62.90
17827;DHT22;9038;48.208;16.308;2023-01-19T05:57:06;4.90;62.90
17827;DHT22;9038;48.208;16.308;2023-01-19T05:59:08;4.90;62.90
17827;DHT22;9038;48.208;16.308;2023-01-19T06:01:10;4.80;62.80
17827;DHT22;9038;48.208;16.308;2023-01-19T06:03:13;4.80;63.30
17827;DHT22;9038;48.208;16.308;2023-01-19T06:05:15;4.80;63.70
17827;DHT22;9038;48.208;16.308;2023-01-19T06:07:17;4.80;63.90
17827;DHT22;9038;48.208;16.308;2023-01-19T06:09:19;4.80;64.00
17827;DHT22;9038;48.208;16.308;2023-01-19T06:11:21;4.80;63.80
17827;DHT22;9038;48.208;16.308;2023-01-19T06:13:24;4.80;63.90
17827;DHT22;9038;48.208;16.308;2023-01-19T06:15:26;4.80;63.90
17827;DHT22;9038;48.208;16.308;2023-01-19T06:17:28;4.80;63.80
17827;DHT22;9038;48.208;16.308;2023-01-19T06:19:32;4.80;63.70
17827;DHT22;9038;48.208;16.308;2023-01-19T06:21:34;4.80;63.70
17827;DHT22;9038;48.208;16.308;2023-01-19T06:23:36;4.90;63.80
17827;DHT22;9038;48.208;16.308;2023-01-19T06:25:38;4.90;63.60
17827;DHT22;9038;48.208;16.308;2023-01-19T06:27:42;4.90;63.70
17827;DHT22;9038;48.208;16.308;2023-01-19T06:29:47;4.90;63.60
17827;DHT22;9038;48.208;16.308;2023-01-19T06:31:48;4.90;63.80
17827;DHT22;9038;48.208;16.308;2023-01-19T06:33:50;4.90;63.60
17827;DHT22;9038;48.208;16.308;2023-01-19T06:35:52;4.90;63.50
17827;DHT22;9038;48.208;16.308;2023-01-19T06:37:54;4.90;63.60
17827;DHT22;9038;48.208;16.308;2023-01-19T06:39:56;5.00;63.50
17827;DHT22;9038;48.208;16.308;2023-01-19T06:41:58;5.00;63.30
17827;DHT22;9038;48.208;16.308;2023-01-19T06:44:00;5.00;63.00
17827;DHT22;9038;48.208;16.308;2023-01-19T06:46:04;5.00;63.00
17827;DHT22;9038;48.208;16.308;2023-01-19T06:48:08;5.00;63.00
17827;DHT22;9038;48.208;16.308;2023-01-19T06:50:10;5.00;63.00
17827;DHT22;9038;48.208;16.308;2023-01-19T06:52:12;5.00;63.10
17827;DHT22;9038;48.208;16.308;2023-01-19T06:54:15;5.00;63.00
17827;DHT22;9038;48.208;16.308;2023-01-19T06:56:17;5.00;63.20
17827;DHT22;9038;48.208;16.308;2023-01-19T06:58:19;5.00;63.10
17827;DHT22;9038;48.208;16.308;2023-01-19T07:00:21;5.00;63.30
17827;DHT22;9038;48.208;16.308;2023-01-19T07:02:25;4.90;63.00
17827;DHT22;9038;48.208;16.308;2023-01-19T07:04:27;4.90;63.40
17827;DHT22;9038;48.208;16.308;2023-01-19T07:06:29;4.90;64.40
17827;DHT22;9038;48.208;16.308;2023-01-19T07:08:31;4.90;63.50
17827;DHT22;9038;48.208;16.308;2023-01-19T07:10:33;5.00;63.70
17827;DHT22;9038;48.208;16.308;2023-01-19T07:12:35;4.90;63.10
17827;DHT22;9038;48.208;16.308;2023-01-19T07:14:37;4.90;63.50
17827;DHT22;9038;48.208;16.308;2023-01-19T07:16:39;4.90;63.20
17827;DHT22;9038;48.208;16.308;2023-01-19T07:18:43;5.00;63.20
17827;DHT22;9038;48.208;16.308;2023-01-19T07:20:45;5.00;63.00
17827;DHT22;9038;48.208;16.308;2023-01-19T07:22:54;5.00;63.00
17827;DHT22;9038;48.208;16.308;2023-01-19T07:24:56;5.10;62.90
17827;DHT22;9038;48.208;16.308;2023-01-19T07:26:58;5.10;63.00
17827;DHT22;9038;48.208;16.308;2023-01-19T07:29:00;5.10;63.10
17827;DHT22;9038;48.208;16.308;2023-01-19T07:31:02;5.10;63.10
17827;DHT22;9038;48.208;16.308;2023-01-19T07:33:04;5.20;63.20
17827;DHT22;9038;48.208;16.308;2023-01-19T07:35:08;5.20;63.20
17827;DHT22;9038;48.208;16.308;2023-01-19T07:37:10;5.20;62.60
17827;DHT22;9038;48.208;16.308;2023-01-19T07:39:12;5.20;62.70
17827;DHT22;9038;48.208;16.308;2023-01-19T07:41:14;5.20;62.60
17827;DHT22;9038;48.208;16.308;2023-01-19T07:43:16;5.10;62.40
17827;DHT22;9038;48.208;16.308;2023-01-19T07:45:19;5.20;62.80
17827;DHT22;9038;48.208;16.308;2023-01-19T07:47:21;5.20;62.90
17827;DHT22;9038;48.208;16.308;2023-01-19T07:49:23;5.20;63.10
17827;DHT22;9038;48.208;16.308;2023-01-19T07:51:27;5.20;63.10
17827;DHT22;9038;48.208;16.308;2023-01-19T07:53:29;5.20;63.20
17827;DHT22;9038;48.208;16.308;2023-01-19T07:55:31;5.20;63.20
17827;DHT22;9038;48.208;16.308;2023-01-19T07:57:33;5.20;63.20
17827;DHT22;9038;48.208;16.308;2023-01-19T07:59:35;5.20;63.20
17827;DHT22;9038;48.208;16.308;2023-01-19T08:01:37;5.20;63.20
17827;DHT22;9038;48.208;16.308;2023-01-19T08:03:39;5.20;62.70
17827;DHT22;9038;48.208;16.308;2023-01-19T08:05:42;5.20;63.10
17827;DHT22;9038;48.208;16.308;2023-01-19T08:07:45;5.10;63.10
17827;DHT22;9038;48.208;16.308;2023-01-19T08:09:47;5.20;63.50
17827;DHT22;9038;48.208;16.308;2023-01-19T08:11:49;5.10;63.20
17827;DHT22;9038;48.208;16.308;2023-01-19T08:13:51;5.10;63.30
17827;DHT22;9038;48.208;16.308;2023-01-19T08:15:53;5.20;63.20
17827;DHT22;9038;48.208;16.308;2023-01-19T08:17:56;5.20;63.30
17827;DHT22;9038;48.208;16.308;2023-01-19T08:19:58;5.30;63.30
17827;DHT22;9038;48.208;16.308;2023-01-19T08:22:00;5.30;62.90
17827;DHT22;9038;48.208;16.308;2023-01-19T08:24:05;5.40;63.00
17827;DHT22;9038;48.208;16.308;2023-01-19T08:26:20;5.40;63.00
17827;DHT22;9038;48.208;16.308;2023-01-19T08:28:23;5.40;63.00
17827;DHT22;9038;48.208;16.308;2023-01-19T08:30:26;5.40;63.00
17827;DHT22;9038;48.208;16.308;2023-01-19T08:32:28;5.30;63.20
17827;DHT22;9038;48.208;16.308;2023-01-19T08:34:30;5.40;63.20
17827;DHT22;9038;48.208;16.308;2023-01-19T08:36:32;5.40;63.30
17827;DHT22;9038;48.208;16.308;2023-01-19T08:38:34;5.40;62.90
17827;DHT22;9038;48.208;16.308;2023-01-19T08:40:39;5.40;63.00
17827;DHT22;9038;48.208;16.308;2023-01-19T08:42:41;5.50;62.70
17827;DHT22;9038;48.208;16.308;2023-01-19T08:44:43;5.50;62.30
17827;DHT22;9038;48.208;16.308;2023-01-19T08:46:45;5.60;62.40
17827;DHT22;9038;48.208;16.308;2023-01-19T08:48:47;5.60;62.10
17827;DHT22;9038;48.208;16.308;2023-01-19T08:50:51;5.70;61.70
17827;DHT22;9038;48.208;16.308;2023-01-19T08:52:55;5.70;61.40
17827;DHT22;9038;48.208;16.308;2023-01-19T08:54:57;5.80;61.70
17827;DHT22;9038;48.208;16.308;2023-01-19T08:57:01;5.90;61.30
17827;DHT22;9038;48.208;16.308;2023-01-19T08:59:03;6.00;60.80
17827;DHT22;9038;48.208;16.308;2023-01-19T09:01:05;6.10;60.30
17827;DHT22;9038;48.208;16.308;2023-01-19T09:03:10;6.20;60.20
17827;DHT22;9038;48.208;16.308;2023-01-19T09:05:12;6.30;60.40
17827;DHT22;9038;48.208;16.308;2023-01-19T09:07:15;6.30;59.50
17827;DHT22;9038;48.208;16.308;2023-01-19T09:09:17;6.30;59.50
17827;DHT22;9038;48.208;16.308;2023-01-19T09:11:18;6.30;59.40
17827;DHT22;9038;48.208;16.308;2023-01-19T09:13:22;6.30;59.00
17827;DHT22;9038;48.208;16.308;2023-01-19T09:15:24;6.30;58.70
17827;DHT22;9038;48.208;16.308;2023-01-19T09:17:26;6.30;58.70
17827;DHT22;9038;48.208;16.308;2023-01-19T09:19:28;6.30;59.20
17827;DHT22;9038;48.208;16.308;2023-01-19T09:21:30;6.40;58.70
17827;DHT22;9038;48.208;16.308;2023-01-19T09:23:32;6.40;58.50
17827;DHT22;9038;48.208;16.308;2023-01-19T09:25:33;6.50;58.60
17827;DHT22;9038;48.208;16.308;2023-01-19T09:27:35;6.60;58.70
17827;DHT22;9038;48.208;16.308;2023-01-19T09:29:39;6.60;58.10
17827;DHT22;9038;48.208;16.308;2023-01-19T09:31:41;6.70;58.00
17827;DHT22;9038;48.208;16.308;2023-01-19T09:33:43;6.70;57.60
17827;DHT22;9038;48.208;16.308;2023-01-19T09:35:46;6.70;57.30
17827;DHT22;9038;48.208;16.308;2023-01-19T09:37:48;6.80;57.00
17827;DHT22;9038;48.208;16.308;2023-01-19T09:39:51;6.80;56.80
17827;DHT22;9038;48.208;16.308;2023-01-19T09:42:01;6.70;56.60
17827;DHT22;9038;48.208;16.308;2023-01-19T09:44:14;6.80;57.00
17827;DHT22;9038;48.208;16.308;2023-01-19T09:46:21;6.80;56.40
17827;DHT22;9038;48.208;16.308;2023-01-19T09:48:35;6.80;57.00
17827;DHT22;9038;48.208;16.308;2023-01-19T09:50:41;6.90;56.90
17827;DHT22;9038;48.208;16.308;2023-01-19T09:52:51;7.00;57.00
17827;DHT22;9038;48.208;16.308;2023-01-19T09:54:56;7.10;56.60
17827;DHT22;9038;48.208;16.308;2023-01-19T09:56:59;7.10;56.10
17827;DHT22;9038;48.208;16.308;2023-01-19T09:59:04;7.20;56.40
17827;DHT22;9038;48.208;16.308;2023-01-19T10:01:37;7.30;56.00
17827;DHT22;9038;48.208;16.308;2023-01-19T10:03:40;7.20;55.60
17827;DHT22;9038;48.208;16.308;2023-01-19T10:05:47;7.10;55.20
17827;DHT22;9038;48.208;16.308;2023-01-19T10:08:07;7.10;55.40
17827;DHT22;9038;48.208;16.308;2023-01-19T10:10:18;7.10;55.40
17827;DHT22;9038;48.208;16.308;2023-01-19T10:12:28;7.10;55.30
17827;DHT22;9038;48.208;16.308;2023-01-19T10:14:37;7.10;55.20
17827;DHT22;9038;48.208;16.308;2023-01-19T10:16:49;7.10;55.10
17827;DHT22;9038;48.208;16.308;2023-01-19T10:18:57;7.10;55.40
17827;DHT22;9038;48.208;16.308;2023-01-19T10:21:03;7.20;55.40
17827;DHT22;9038;48.208;16.308;2023-01-19T10:23:22;7.40;55.20
17827;DHT22;9038;48.208;16.308;2023-01-19T10:25:26;7.50;54.70
17827;DHT22;9038;48.208;16.308;2023-01-19T10:27:29;7.40;54.90
17827;DHT22;9038;48.208;16.308;2023-01-19T10:29:33;7.30;55.50
17827;DHT22;9038;48.208;16.308;2023-01-19T10:31:36;7.40;55.10
17827;DHT22;9038;48.208;16.308;2023-01-19T10:33:40;7.40;55.40
17827;DHT22;9038;48.208;16.308;2023-01-19T10:35:42;7.60;55.30
17827;DHT22;9038;48.208;16.308;2023-01-19T10:37:44;7.70;54.90
17827;DHT22;9038;48.208;16.308;2023-01-19T10:39:51;7.70;54.10
17827;DHT22;9038;48.208;16.308;2023-01-19T10:42:02;7.70;54.20
17827;DHT22;9038;48.208;16.308;2023-01-19T10:44:05;7.70;53.90
17827;DHT22;9038;48.208;16.308;2023-01-19T10:46:20;7.70;53.90
17827;DHT22;9038;48.208;16.308;2023-01-19T10:48:23;7.70;54.00
17827;DHT22;9038;48.208;16.308;2023-01-19T10:50:28;7.70;53.40
17827;DHT22;9038;48.208;16.308;2023-01-19T10:52:32;7.90;53.50
17827;DHT22;9038;48.208;16.308;2023-01-19T10:54:36;8.00;53.20
17827;DHT22;9038;48.208;16.308;2023-01-19T10:56:38;8.20;52.50
17827;DHT22;9038;48.208;16.308;2023-01-19T10:58:40;8.30;51.60
17827;DHT22;9038;48.208;16.308;2023-01-19T11:00:42;8.40;51.40
17827;DHT22;9038;48.208;16.308;2023-01-19T11:02:49;8.40;50.80
17827;DHT22;9038;48.208;16.308;2023-01-19T11:04:52;8.40;50.70
17827;DHT22;9038;48.208;16.308;2023-01-19T11:07:12;8.30;50.00
17827;DHT22;9038;48.208;16.308;2023-01-19T11:09:17;8.10;49.70
17827;DHT22;9038;48.208;16.308;2023-01-19T11:11:20;8.10;49.70
17827;DHT22;9038;48.208;16.308;2023-01-19T11:13:24;8.10;49.90
17827;DHT22;9038;48.208;16.308;2023-01-19T11:15:30;8.10;49.00
17827;DHT22;9038;48.208;16.308;2023-01-19T11:17:33;8.10;49.30
17827;DHT22;9038;48.208;16.308;2023-01-19T11:19:35;8.00;49.40
17827;DHT22;9038;48.208;16.308;2023-01-19T11:21:37;8.00;49.20
17827;DHT22;9038;48.208;16.308;2023-01-19T11:23:43;7.90;49.30
17827;DHT22;9038;48.208;16.308;2023-01-19T11:25:50;7.90;49.70
17827;DHT22;9038;48.208;16.308;2023-01-19T11:27:52;7.80;48.40
17827;DHT22;9038;48.208;16.308;2023-01-19T11:30:00;7.50;47.30
17827;DHT22;9038;48.208;16.308;2023-01-19T11:32:19;7.30;47.50
17827;DHT22;9038;48.208;16.308;2023-01-19T11:34:24;7.20;46.20
17827;DHT22;9038;48.208;16.308;2023-01-19T11:36:27;7.10;46.60
17827;DHT22;9038;48.208;16.308;2023-01-19T11:38:31;7.10;45.80
17827;DHT22;9038;48.208;16.308;2023-01-19T11:40:34;6.90;44.90
17827;DHT22;9038;48.208;16.308;2023-01-19T11:42:36;6.90;45.90
17827;DHT22;9038;48.208;16.308;2023-01-19T11:44:45;6.90;46.60
17827;DHT22;9038;48.208;16.308;2023-01-19T11:46:52;6.80;47.60
17827;DHT22;9038;48.208;16.308;2023-01-19T11:48:57;6.70;48.40
17827;DHT22;9038;48.208;16.308;2023-01-19T11:51:03;6.70;48.80
17827;DHT22;9038;48.208;16.308;2023-01-19T11:53:15;6.60;48.70
17827;DHT22;9038;48.208;16.308;2023-01-19T11:55:22;6.60;48.20
17827;DHT22;9038;48.208;16.308;2023-01-19T11:57:27;6.50;48.00
17827;DHT22;9038;48.208;16.308;2023-01-19T11:59:29;6.40;47.10
17827;DHT22;9038;48.208;16.308;2023-01-19T12:01:33;6.40;46.00
17827;DHT22;9038;48.208;16.308;2023-01-19T12:03:39;6.40;46.20
17827;DHT22;9038;48.208;16.308;2023-01-19T12:05:44;6.40;46.40
17827;DHT22;9038;48.208;16.308;2023-01-19T12:07:48;6.40;45.40
17827;DHT22;9038;48.208;16.308;2023-01-19T12:09:54;6.40;45.20
17827;DHT22;9038;48.208;16.308;2023-01-19T12:12:00;6.40;45.80
17827;DHT22;9038;48.208;16.308;2023-01-19T12:14:06;6.40;46.00
17827;DHT22;9038;48.208;16.308;2023-01-19T12:16:19;6.30;45.90
17827;DHT22;9038;48.208;16.308;2023-01-19T12:18:24;6.40;46.50
17827;DHT22;9038;48.208;16.308;2023-01-19T12:20:30;6.20;46.90
17827;DHT22;9038;48.208;16.308;2023-01-19T12:22:39;6.20;47.60
17827;DHT22;9038;48.208;16.308;2023-01-19T12:24:51;6.10;48.30
17827;DHT22;9038;48.208;16.308;2023-01-19T12:26:56;6.00;48.70
17827;DHT22;9038;48.208;16.308;2023-01-19T12:29:05;6.00;49.40
17827;DHT22;9038;48.208;16.308;2023-01-19T12:31:09;6.10;49.70
17827;DHT22;9038;48.208;16.308;2023-01-19T12:33:32;6.10;49.80
17827;DHT22;9038;48.208;16.308;2023-01-19T12:35:55;6.10;49.80
17827;DHT22;9038;48.208;16.308;2023-01-19T12:37:59;6.20;50.00
17827;DHT22;9038;48.208;16.308;2023-01-19T12:40:03;6.20;50.20
17827;DHT22;9038;48.208;16.308;2023-01-19T12:42:17;6.20;50.20
17827;DHT22;9038;48.208;16.308;2023-01-19T12:44:24;6.20;50.30
17827;DHT22;9038;48.208;16.308;2023-01-19T12:46:29;6.20;50.60
17827;DHT22;9038;48.208;16.308;2023-01-19T12:48:31;6.20;50.70
17827;DHT22;9038;48.208;16.308;2023-01-19T12:50:35;6.20;51.00
17827;DHT22;9038;48.208;16.308;2023-01-19T12:52:39;6.20;51.20
17827;DHT22;9038;48.208;16.308;2023-01-19T12:54:55;6.20;51.60
17827;DHT22;9038;48.208;16.308;2023-01-19T12:57:01;6.20;51.30
17827;DHT22;9038;48.208;16.308;2023-01-19T12:59:04;6.30;51.70
17827;DHT22;9038;48.208;16.308;2023-01-19T13:01:15;6.40;51.90
17827;DHT22;9038;48.208;16.308;2023-01-19T13:03:42;6.30;51.90
17827;DHT22;9038;48.208;16.308;2023-01-19T13:05:51;6.40;52.30
17827;DHT22;9038;48.208;16.308;2023-01-19T13:08:16;6.40;52.50
17827;DHT22;9038;48.208;16.308;2023-01-19T13:13:16;6.40;53.30
17827;DHT22;9038;48.208;16.308;2023-01-19T13:15:27;6.30;53.90
17827;DHT22;9038;48.208;16.308;2023-01-19T13:17:32;6.30;54.50
17827;DHT22;9038;48.208;16.308;2023-01-19T13:19:45;6.30;54.80
17827;DHT22;9038;48.208;16.308;2023-01-19T13:21:48;6.20;56.60